sensor_id;sensor_type;location;lat;lon;timestamp;pressure;altitude;pressure_sealevel;temperature;humidity
43804;BME280;29430;52.924;-2.388;2023-02-15T00:04:00;100124.38;;;5.22;100.00
43804;BME280;29430;52.924;-2.388;2023-02-15T00:08:53;100122.53;;;5.23;100.00
43804;BME280;29430;52.924;-2.388;2023-02-15T00:13:45;100102.88;;;5.22;100.00
43804;BME280;29430;52.924;-2.388;2023-02-15T00:18:38;100091.44;;;5.20;100.00
43804;BME280;29430;52.924;-2.388;2023-02-15T00:23:30;100102.53;;;5.17;100.00
43804;BME280;29430;52.924;-2.388;2023-02-15T00:28:22;100089.44;;;5.14;100.00
43804;BME280;29430;52.924;-2.388;2023-02-15T00:33:14;100093.31;;;5.11;100.00
43804;BME280;29430;52.924;-2.388;2023-02-15T00:38:06;100084.09;;;5.06;100.00
43804;BME280;29430;52.924;-2.388;2023-02-15T00:42:58;100078.41;;;5.00;100.00
43804;BME280;29430;52.924;-2.388;2023-02-15T00:47:50;100066.97;;;4.98;100.00
43804;BME280;29430;52.924;-2.388;2023-02-15T00:52:41;100054.56;;;4.97;100.00
43804;BME280;29430;52.924;-2.388;2023-02-15T00:57:33;100041.13;;;4.97;100.00
43804;BME280;29430;52.924;-2.388;2023-02-15T01:02:25;100033.88;;;4.98;100.00
43804;BME280;29430;52.924;-2.388;2023-02-15T01:07:17;100027.50;;;4.99;100.00
43804;BME280;29430;52.924;-2.388;2023-02-15T01:12:08;100025.00;;;4.97;100.00
43804;BME280;29430;52.924;-2.388;2023-02-15T01:17:00;100008.19;;;4.95;100.00
43804;BME280;29430;52.924;-2.388;2023-02-15T01:21:52;100005.53;;;4.87;100.00
43804;BME280;29430;52.924;-2.388;2023-02-15T01:26:44;99998.81;;;4.83;100.00
43804;BME280;29430;52.924;-2.388;2023-02-15T01:31:35;99988.75;;;4.77;100.00
43804;BME280;29430;52.924;-2.388;2023-02-15T01:36:27;99978.53;;;4.72;100.00
43804;BME280;29430;52.924;-2.388;2023-02-15T01:41:19;99978.69;;;4.71;100.00
43804;BME280;29430;52.924;-2.388;2023-02-15T01:46:13;99978.03;;;4.69;100.00
43804;BME280;29430;52.924;-2.388;2023-02-15T01:51:05;99977.38;;;4.66;100.00
43804;BME280;29430;52.924;-2.388;2023-02-15T01:56:10;99965.31;;;4.62;100.00
43804;BME280;29430;52.924;-2.388;2023-02-15T02:01:04;99959.28;;;4.60;99.82
43804;BME280;29430;52.924;-2.388;2023-02-15T02:05:59;99957.91;;;4.64;99.10
43804;BME280;29430;52.924;-2.388;2023-02-15T02:10:51;99932.06;;;4.63;98.60
43804;BME280;29430;52.924;-2.388;2023-02-15T02:15:56;99931.91;;;4.65;98.71
43804;BME280;29430;52.924;-2.388;2023-02-15T02:21:02;99915.25;;;4.61;98.52
43804;BME280;29430;52.924;-2.388;2023-02-15T02:42:41;99886.81;;;4.44;98.56
43804;BME280;29430;52.924;-2.388;2023-02-15T02:47:47;99875.06;;;4.45;97.95
43804;BME280;29430;52.924;-2.388;2023-02-15T02:52:49;99865.16;;;4.45;97.16
43804;BME280;29430;52.924;-2.388;2023-02-15T02:57:50;99859.59;;;4.47;97.23
43804;BME280;29430;52.924;-2.388;2023-02-15T03:02:45;99849.03;;;4.45;97.25
43804;BME280;29430;52.924;-2.388;2023-02-15T03:07:39;99848.69;;;4.48;96.99
43804;BME280;29430;52.924;-2.388;2023-02-15T03:12:34;99832.38;;;4.50;96.63
43804;BME280;29430;52.924;-2.388;2023-02-15T03:17:30;99831.56;;;4.50;96.11
43804;BME280;29430;52.924;-2.388;2023-02-15T03:22:30;99832.22;;;4.52;95.81
43804;BME280;29430;52.924;-2.388;2023-02-15T03:27:29;99826.00;;;4.51;95.67
43804;BME280;29430;52.924;-2.388;2023-02-15T03:32:24;99806.53;;;4.49;95.72
43804;BME280;29430;52.924;-2.388;2023-02-15T03:37:34;99805.06;;;4.46;95.99
43804;BME280;29430;52.924;-2.388;2023-02-15T03:42:31;99811.59;;;4.44;95.84
43804;BME280;29430;52.924;-2.388;2023-02-15T03:47:31;99799.88;;;4.37;96.56
43804;BME280;29430;52.924;-2.388;2023-02-15T03:52:28;99801.75;;;4.36;96.76
43804;BME280;29430;52.924;-2.388;2023-02-15T03:57:22;99785.97;;;4.33;97.05
43804;BME280;29430;52.924;-2.388;2023-02-15T04:02:38;99775.59;;;4.30;97.09
43804;BME280;29430;52.924;-2.388;2023-02-15T04:07:32;99770.75;;;4.25;97.41
43804;BME280;29430;52.924;-2.388;2023-02-15T04:12:24;99759.03;;;4.18;97.55
43804;BME280;29430;52.924;-2.388;2023-02-15T04:17:16;99768.47;;;4.14;97.93
43804;BME280;29430;52.924;-2.388;2023-02-15T04:22:08;99755.75;;;4.08;97.92
43804;BME280;29430;52.924;-2.388;2023-02-15T04:27:18;99756.09;;;4.05;98.40
43804;BME280;29430;52.924;-2.388;2023-02-15T04:32:10;99753.75;;;4.02;98.31
43804;BME280;29430;52.924;-2.388;2023-02-15T04:37:01;99739.19;;;3.96;98.72
43804;BME280;29430;52.924;-2.388;2023-02-15T04:41:53;99740.53;;;3.92;98.80
43804;BME280;29430;52.924;-2.388;2023-02-15T04:46:45;99742.06;;;3.86;99.25
43804;BME280;29430;52.924;-2.388;2023-02-15T04:51:36;99742.75;;;3.80;99.21
43804;BME280;29430;52.924;-2.388;2023-02-15T04:56:28;99735.41;;;3.74;99.67
43804;BME280;29430;52.924;-2.388;2023-02-15T05:01:21;99729.72;;;3.69;99.67
43804;BME280;29430;52.924;-2.388;2023-02-15T05:06:26;99739.97;;;3.65;99.92
43804;BME280;29430;52.924;-2.388;2023-02-15T05:11:18;99720.69;;;3.62;100.00
43804;BME280;29430;52.924;-2.388;2023-02-15T05:16:10;99726.41;;;3.58;100.00
43804;BME280;29430;52.924;-2.388;2023-02-15T05:21:02;99724.06;;;3.55;100.00
43804;BME280;29430;52.924;-2.388;2023-02-15T05:25:53;99713.69;;;3.52;100.00
43804;BME280;29430;52.924;-2.388;2023-02-15T05:35:57;99710.31;;;3.50;100.00
43804;BME280;29430;52.924;-2.388;2023-02-15T05:40:51;99699.94;;;3.47;100.00
43804;BME280;29430;52.924;-2.388;2023-02-15T05:45:50;99688.91;;;3.42;100.00
43804;BME280;29430;52.924;-2.388;2023-02-15T05:50:43;99679.00;;;3.43;100.00
43804;BME280;29430;52.924;-2.388;2023-02-15T05:55:40;99673.66;;;3.43;100.00
43804;BME280;29430;52.924;-2.388;2023-02-15T06:00:32;99680.69;;;3.44;100.00
43804;BME280;29430;52.924;-2.388;2023-02-15T06:05:23;99682.88;;;3.40;100.00
43804;BME280;29430;52.924;-2.388;2023-02-15T06:10:15;99695.59;;;3.38;100.00
43804;BME280;29430;52.924;-2.388;2023-02-15T06:15:07;99687.56;;;3.38;100.00
43804;BME280;29430;52.924;-2.388;2023-02-15T06:19:59;99678.69;;;3.37;100.00
43804;BME280;29430;52.924;-2.388;2023-02-15T06:24:51;99679.22;;;3.33;100.00
43804;BME280;29430;52.924;-2.388;2023-02-15T06:29:42;99668.84;;;3.30;100.00
43804;BME280;29430;52.924;-2.388;2023-02-15T06:34:34;99676.88;;;3.30;100.00
43804;BME280;29430;52.924;-2.388;2023-02-15T06:39:26;99669.19;;;3.27;100.00
43804;BME280;29430;52.924;-2.388;2023-02-15T06:44:17;99673.19;;;3.22;100.00
43804;BME280;29430;52.924;-2.388;2023-02-15T06:49:09;99666.34;;;3.20;100.00
43804;BME280;29430;52.924;-2.388;2023-02-15T06:54:01;99665.66;;;3.18;100.00
43804;BME280;29430;52.924;-2.388;2023-02-15T06:58:53;99658.81;;;3.15;100.00
43804;BME280;29430;52.924;-2.388;2023-02-15T07:03:44;99655.47;;;3.13;100.00
43804;BME280;29430;52.924;-2.388;2023-02-15T07:08:37;99667.03;;;3.14;100.00
43804;BME280;29430;52.924;-2.388;2023-02-15T07:13:30;99653.28;;;3.17;100.00
43804;BME280;29430;52.924;-2.388;2023-02-15T07:18:22;99648.91;;;3.24;100.00
43804;BME280;29430;52.924;-2.388;2023-02-15T07:23:13;99657.47;;;3.28;100.00
43804;BME280;29430;52.924;-2.388;2023-02-15T07:28:05;99647.03;;;3.33;100.00
43804;BME280;29430;52.924;-2.388;2023-02-15T07:32:58;99644.00;;;3.36;100.00
43804;BME280;29430;52.924;-2.388;2023-02-15T07:38:08;99645.19;;;3.42;100.00
43804;BME280;29430;52.924;-2.388;2023-02-15T07:43:00;99639.66;;;3.43;100.00
43804;BME280;29430;52.924;-2.388;2023-02-15T07:47:52;99638.63;;;3.44;100.00
43804;BME280;29430;52.924;-2.388;2023-02-15T07:52:43;99642.50;;;3.42;100.00
43804;BME280;29430;52.924;-2.388;2023-02-15T07:57:35;99624.91;;;3.39;100.00
43804;BME280;29430;52.924;-2.388;2023-02-15T08:02:27;99631.59;;;3.43;100.00
43804;BME280;29430;52.924;-2.388;2023-02-15T08:07:20;99639.94;;;3.48;100.00
43804;BME280;29430;52.924;-2.388;2023-02-15T08:12:12;99646.31;;;3.55;100.00
43804;BME280;29430;52.924;-2.388;2023-02-15T08:17:03;99623.13;;;3.63;100.00
43804;BME280;29430;52.924;-2.388;2023-02-15T08:22:01;99633.13;;;3.77;100.00
43804;BME280;29430;52.924;-2.388;2023-02-15T08:26:53;99623.00;;;3.87;100.00
43804;BME280;29430;52.924;-2.388;2023-02-15T08:31:47;99614.13;;;4.10;100.00
43804;BME280;29430;52.924;-2.388;2023-02-15T08:36:39;99591.28;;;4.37;100.00
43804;BME280;29430;52.924;-2.388;2023-02-15T08:41:33;99605.75;;;4.74;100.00
43804;BME280;29430;52.924;-2.388;2023-02-15T08:46:31;99611.34;;;5.17;99.88
43804;BME280;29430;52.924;-2.388;2023-02-15T08:51:25;99600.44;;;5.55;97.94
43804;BME280;29430;52.924;-2.388;2023-02-15T08:56:19;99601.72;;;5.96;96.25
43804;BME280;29430;52.924;-2.388;2023-02-15T09:01:28;99612.50;;;6.33;94.25
43804;BME280;29430;52.924;-2.388;2023-02-15T09:06:21;99600.78;;;6.69;90.96
43804;BME280;29430;52.924;-2.388;2023-02-15T09:11:22;99596.41;;;6.96;88.99
43804;BME280;29430;52.924;-2.388;2023-02-15T09:16:15;99594.28;;;7.20;87.05
43804;BME280;29430;52.924;-2.388;2023-02-15T09:21:15;99585.06;;;7.42;86.49
43804;BME280;29430;52.924;-2.388;2023-02-15T09:26:10;99595.53;;;7.65;83.67
43804;BME280;29430;52.924;-2.388;2023-02-15T09:31:06;99589.59;;;7.97;83.75
43804;BME280;29430;52.924;-2.388;2023-02-15T09:35:58;99586.97;;;8.30;82.15
43804;BME280;29430;52.924;-2.388;2023-02-15T09:46:14;99593.88;;;8.93;79.70
43804;BME280;29430;52.924;-2.388;2023-02-15T09:56:57;99581.09;;;9.79;76.54
43804;BME280;29430;52.924;-2.388;2023-02-15T10:02:06;99575.44;;;10.26;75.33
43804;BME280;29430;52.924;-2.388;2023-02-15T10:28:18;99577.16;;;10.96;70.55
43804;BME280;29430;52.924;-2.388;2023-02-15T10:38:24;99576.03;;;10.85;69.54
43804;BME280;29430;52.924;-2.388;2023-02-15T11:04:44;99555.97;;;10.03;74.94
43804;BME280;29430;52.924;-2.388;2023-02-15T11:09:53;99558.94;;;10.27;74.76
43804;BME280;29430;52.924;-2.388;2023-02-15T11:25:32;99571.75;;;10.96;73.08
43804;BME280;29430;52.924;-2.388;2023-02-15T11:30:29;99592.25;;;11.10;73.95
43804;BME280;29430;52.924;-2.388;2023-02-15T11:35:33;99587.53;;;11.24;72.53
43804;BME280;29430;52.924;-2.388;2023-02-15T11:40:31;99584.66;;;11.19;72.12
43804;BME280;29430;52.924;-2.388;2023-02-15T11:50:28;99578.28;;;10.88;73.79
43804;BME280;29430;52.924;-2.388;2023-02-15T11:55:22;99576.28;;;10.77;74.80
43804;BME280;29430;52.924;-2.388;2023-02-15T12:00:30;99570.00;;;10.57;75.59
43804;BME280;29430;52.924;-2.388;2023-02-15T12:05:24;99568.09;;;10.33;76.45
43804;BME280;29430;52.924;-2.388;2023-02-15T12:10:38;99567.75;;;10.16;77.44
43804;BME280;29430;52.924;-2.388;2023-02-15T12:15:34;99568.09;;;9.94;78.39
43804;BME280;29430;52.924;-2.388;2023-02-15T12:20:31;99585.50;;;9.80;80.70
43804;BME280;29430;52.924;-2.388;2023-02-15T12:25:36;99600.31;;;9.71;81.03
43804;BME280;29430;52.924;-2.388;2023-02-15T12:30:35;99600.56;;;9.62;82.32
43804;BME280;29430;52.924;-2.388;2023-02-15T12:40:28;99596.22;;;9.48;84.37
43804;BME280;29430;52.924;-2.388;2023-02-15T12:45:33;99604.34;;;9.48;85.87
43804;BME280;29430;52.924;-2.388;2023-02-15T12:50:25;99598.34;;;9.46;85.17
43804;BME280;29430;52.924;-2.388;2023-02-15T12:55:27;99608.34;;;9.45;85.76
43804;BME280;29430;52.924;-2.388;2023-02-15T13:00:27;99603.13;;;9.44;86.52
43804;BME280;29430;52.924;-2.388;2023-02-15T13:05:36;99606.50;;;9.39;87.49
43804;BME280;29430;52.924;-2.388;2023-02-15T13:10:33;99585.88;;;9.38;87.65
43804;BME280;29430;52.924;-2.388;2023-02-15T13:20:26;99577.31;;;9.41;87.69
43804;BME280;29430;52.924;-2.388;2023-02-15T13:25:24;99575.63;;;9.47;88.80
43804;BME280;29430;52.924;-2.388;2023-02-15T13:30:28;99585.97;;;9.63;88.62
43804;BME280;29430;52.924;-2.388;2023-02-15T13:35:25;99581.38;;;9.71;88.87
43804;BME280;29430;52.924;-2.388;2023-02-15T13:40:29;99572.97;;;9.79;88.96
43804;BME280;29430;52.924;-2.388;2023-02-15T13:45:30;99578.38;;;9.85;89.27
43804;BME280;29430;52.924;-2.388;2023-02-15T14:05:36;99544.78;;;10.25;89.60
43804;BME280;29430;52.924;-2.388;2023-02-15T14:16:31;99560.53;;;10.42;89.09
43804;BME280;29430;52.924;-2.388;2023-02-15T14:21:31;99550.41;;;10.55;89.74
43804;BME280;29430;52.924;-2.388;2023-02-15T14:26:33;99556.38;;;10.64;88.71
43804;BME280;29430;52.924;-2.388;2023-02-15T14:31:39;99562.56;;;10.71;89.10
43804;BME280;29430;52.924;-2.388;2023-02-15T14:36:33;99561.53;;;10.72;89.35
43804;BME280;29430;52.924;-2.388;2023-02-15T14:41:50;99564.47;;;10.71;88.86
43804;BME280;29430;52.924;-2.388;2023-02-15T14:47:05;99554.28;;;10.66;89.36
43804;BME280;29430;52.924;-2.388;2023-02-15T14:52:04;99547.19;;;10.65;89.20
43804;BME280;29430;52.924;-2.388;2023-02-15T15:01:56;99566.94;;;10.72;87.03
43804;BME280;29430;52.924;-2.388;2023-02-15T15:07:00;99570.72;;;10.71;85.45
43804;BME280;29430;52.924;-2.388;2023-02-15T15:11:55;99576.94;;;10.72;83.30
43804;BME280;29430;52.924;-2.388;2023-02-15T15:17:05;99583.25;;;10.66;81.76
43804;BME280;29430;52.924;-2.388;2023-02-15T15:22:03;99582.28;;;10.60;81.39
43804;BME280;29430;52.924;-2.388;2023-02-15T15:32:27;99565.34;;;10.39;81.61
43804;BME280;29430;52.924;-2.388;2023-02-15T15:48:31;99595.66;;;10.23;81.81
43804;BME280;29430;52.924;-2.388;2023-02-15T15:53:26;99597.78;;;10.14;81.19
43804;BME280;29430;52.924;-2.388;2023-02-15T15:58:19;99598.88;;;10.07;81.47
43804;BME280;29430;52.924;-2.388;2023-02-15T16:03:23;99587.94;;;9.95;80.75
43804;BME280;29430;52.924;-2.388;2023-02-15T16:08:26;99589.00;;;9.87;81.77
43804;BME280;29430;52.924;-2.388;2023-02-15T16:13:18;99581.91;;;9.86;81.91
43804;BME280;29430;52.924;-2.388;2023-02-15T16:18:15;99584.03;;;9.84;81.07
43804;BME280;29430;52.924;-2.388;2023-02-15T16:28:15;99581.97;;;9.79;82.09
43804;BME280;29430;52.924;-2.388;2023-02-15T16:33:12;99582.19;;;9.78;81.80
43804;BME280;29430;52.924;-2.388;2023-02-15T16:38:05;99581.16;;;9.72;80.43
43804;BME280;29430;52.924;-2.388;2023-02-15T16:43:01;99580.97;;;9.67;81.08
43804;BME280;29430;52.924;-2.388;2023-02-15T16:47:59;99588.91;;;9.62;80.93
43804;BME280;29430;52.924;-2.388;2023-02-15T16:52:52;99576.84;;;9.58;80.41
43804;BME280;29430;52.924;-2.388;2023-02-15T16:57:44;99582.69;;;9.48;81.21
43804;BME280;29430;52.924;-2.388;2023-02-15T17:02:36;99574.44;;;9.36;81.26
43804;BME280;29430;52.924;-2.388;2023-02-15T17:13:09;99581.56;;;9.10;81.76
43804;BME280;29430;52.924;-2.388;2023-02-15T17:18:11;99593.44;;;9.03;82.61
43804;BME280;29430;52.924;-2.388;2023-02-15T17:23:06;99583.28;;;8.91;82.42
43804;BME280;29430;52.924;-2.388;2023-02-15T17:27:59;99582.88;;;8.81;82.88
43804;BME280;29430;52.924;-2.388;2023-02-15T17:32:58;99588.06;;;8.69;83.16
43804;BME280;29430;52.924;-2.388;2023-02-15T17:38:00;99587.03;;;8.57;83.78
43804;BME280;29430;52.924;-2.388;2023-02-15T17:42:52;99580.13;;;8.41;84.59
43804;BME280;29430;52.924;-2.388;2023-02-15T17:47:46;99596.75;;;8.31;85.99
43804;BME280;29430;52.924;-2.388;2023-02-15T17:52:38;99597.59;;;8.25;85.49
43804;BME280;29430;52.924;-2.388;2023-02-15T17:57:30;99596.94;;;8.23;86.49
43804;BME280;29430;52.924;-2.388;2023-02-15T18:02:22;99597.97;;;8.15;86.69
43804;BME280;29430;52.924;-2.388;2023-02-15T18:07:32;99597.75;;;8.03;87.15
43804;BME280;29430;52.924;-2.388;2023-02-15T18:12:42;99601.06;;;7.99;87.58
43804;BME280;29430;52.924;-2.388;2023-02-15T18:17:39;99616.63;;;7.97;87.88
43804;BME280;29430;52.924;-2.388;2023-02-15T18:22:33;99612.28;;;7.96;87.75
43804;BME280;29430;52.924;-2.388;2023-02-15T18:27:24;99612.69;;;7.93;87.80
43804;BME280;29430;52.924;-2.388;2023-02-15T18:32:27;99619.72;;;7.87;87.74
43804;BME280;29430;52.924;-2.388;2023-02-15T18:37:28;99618.84;;;7.80;87.82
43804;BME280;29430;52.924;-2.388;2023-02-15T18:42:23;99615.31;;;7.73;88.10
43804;BME280;29430;52.924;-2.388;2023-02-15T18:47:17;99609.25;;;7.64;88.48
43804;BME280;29430;52.924;-2.388;2023-02-15T18:52:15;99614.16;;;7.53;89.58
43804;BME280;29430;52.924;-2.388;2023-02-15T18:57:08;99618.91;;;7.45;89.33
43804;BME280;29430;52.924;-2.388;2023-02-15T19:02:03;99611.44;;;7.40;89.39
43804;BME280;29430;52.924;-2.388;2023-02-15T19:06:57;99614.53;;;7.37;89.78
43804;BME280;29430;52.924;-2.388;2023-02-15T19:11:53;99612.84;;;7.36;89.77
43804;BME280;29430;52.924;-2.388;2023-02-15T19:16:45;99603.88;;;7.29;89.28
43804;BME280;29430;52.924;-2.388;2023-02-15T19:21:37;99599.47;;;7.21;89.40
43804;BME280;29430;52.924;-2.388;2023-02-15T19:26:30;99588.47;;;7.16;89.73
43804;BME280;29430;52.924;-2.388;2023-02-15T19:31:35;99583.66;;;7.11;89.86
43804;BME280;29430;52.924;-2.388;2023-02-15T19:36:27;99576.97;;;7.07;90.06
43804;BME280;29430;52.924;-2.388;2023-02-15T19:41:26;99572.19;;;7.03;90.32
43804;BME280;29430;52.924;-2.388;2023-02-15T19:46:21;99567.59;;;6.96;91.23
43804;BME280;29430;52.924;-2.388;2023-02-15T19:51:13;99567.34;;;6.91;91.59
43804;BME280;29430;52.924;-2.388;2023-02-15T19:56:18;99566.06;;;6.87;91.31
43804;BME280;29430;52.924;-2.388;2023-02-15T20:01:11;99580.16;;;6.82;92.37
43804;BME280;29430;52.924;-2.388;2023-02-15T20:06:03;99583.03;;;6.81;92.90
43804;BME280;29430;52.924;-2.388;2023-02-15T20:10:58;99589.00;;;6.76;93.38
43804;BME280;29430;52.924;-2.388;2023-02-15T20:15:50;99586.31;;;6.76;94.66
43804;BME280;29430;52.924;-2.388;2023-02-15T20:20:51;99583.44;;;6.78;94.37
43804;BME280;29430;52.924;-2.388;2023-02-15T20:25:44;99591.31;;;6.79;94.53
43804;BME280;29430;52.924;-2.388;2023-02-15T20:30:37;99591.13;;;6.81;94.16
43804;BME280;29430;52.924;-2.388;2023-02-15T20:35:30;99586.59;;;6.81;94.03
43804;BME280;29430;52.924;-2.388;2023-02-15T20:40:26;99583.44;;;6.78;94.80
43804;BME280;29430;52.924;-2.388;2023-02-15T20:45:24;99591.72;;;6.76;94.92
43804;BME280;29430;52.924;-2.388;2023-02-15T20:50:22;99576.97;;;6.72;95.88
43804;BME280;29430;52.924;-2.388;2023-02-15T20:55:32;99581.72;;;6.70;96.16
43804;BME280;29430;52.924;-2.388;2023-02-15T21:00:28;99590.47;;;6.72;96.68
43804;BME280;29430;52.924;-2.388;2023-02-15T21:05:26;99586.91;;;6.72;97.45
43804;BME280;29430;52.924;-2.388;2023-02-15T21:10:27;99583.38;;;6.71;96.83
43804;BME280;29430;52.924;-2.388;2023-02-15T21:15:37;99592.50;;;6.70;96.99
43804;BME280;29430;52.924;-2.388;2023-02-15T21:20:33;99590.19;;;6.67;97.42
43804;BME280;29430;52.924;-2.388;2023-02-15T21:25:32;99600.34;;;6.65;97.49
43804;BME280;29430;52.924;-2.388;2023-02-15T21:30:26;99598.47;;;6.66;97.39
43804;BME280;29430;52.924;-2.388;2023-02-15T21:35:19;99603.28;;;6.70;97.95
43804;BME280;29430;52.924;-2.388;2023-02-15T21:40:16;99597.06;;;6.70;98.16
43804;BME280;29430;52.924;-2.388;2023-02-15T21:45:14;99590.47;;;6.72;98.32
43804;BME280;29430;52.924;-2.388;2023-02-15T21:50:24;99592.56;;;6.77;97.99
43804;BME280;29430;52.924;-2.388;2023-02-15T21:55:35;99592.41;;;6.85;97.35
43804;BME280;29430;52.924;-2.388;2023-02-15T22:00:27;99600.34;;;6.93;96.14
43804;BME280;29430;52.924;-2.388;2023-02-15T22:05:22;99614.31;;;7.04;95.97
43804;BME280;29430;52.924;-2.388;2023-02-15T22:10:15;99605.44;;;7.10;95.82
43804;BME280;29430;52.924;-2.388;2023-02-15T22:15:17;99612.31;;;7.12;95.35
43804;BME280;29430;52.924;-2.388;2023-02-15T22:20:17;99611.91;;;7.15;95.68
43804;BME280;29430;52.924;-2.388;2023-02-15T22:25:14;99611.50;;;7.19;95.96
43804;BME280;29430;52.924;-2.388;2023-02-15T22:35:19;99618.56;;;7.20;95.64
43804;BME280;29430;52.924;-2.388;2023-02-15T22:40:14;99612.13;;;7.21;95.69
43804;BME280;29430;52.924;-2.388;2023-02-15T22:45:19;99611.94;;;7.22;95.55
43804;BME280;29430;52.924;-2.388;2023-02-15T22:50:20;99601.97;;;7.23;95.81
43804;BME280;29430;52.924;-2.388;2023-02-15T22:55:32;99606.97;;;7.26;95.39
43804;BME280;29430;52.924;-2.388;2023-02-15T23:00:31;99611.94;;;7.22;95.41
43804;BME280;29430;52.924;-2.388;2023-02-15T23:05:24;99586.38;;;7.18;95.95
43804;BME280;29430;52.924;-2.388;2023-02-15T23:10:18;99593.44;;;7.19;96.88
43804;BME280;29430;52.924;-2.388;2023-02-15T23:15:13;99581.66;;;7.20;96.57
43804;BME280;29430;52.924;-2.388;2023-02-15T23:20:05;99572.50;;;7.21;96.68
43804;BME280;29430;52.924;-2.388;2023-02-15T23:24:57;99568.78;;;7.22;95.80
43804;BME280;29430;52.924;-2.388;2023-02-15T23:29:49;99560.50;;;7.24;95.82
43804;BME280;29430;52.924;-2.388;2023-02-15T23:34:42;99555.09;;;7.24;95.74
43804;BME280;29430;52.924;-2.388;2023-02-15T23:39:35;99542.00;;;7.21;95.70
43804;BME280;29430;52.924;-2.388;2023-02-15T23:44:47;99525.00;;;7.20;95.08
43804;BME280;29430;52.924;-2.388;2023-02-15T23:49:39;99553.81;;;7.20;95.00
43804;BME280;29430;52.924;-2.388;2023-02-15T23:54:30;99549.47;;;7.19;94.46
43804;BME280;29430;52.924;-2.388;2023-02-15T23:59:24;99543.22;;;7.18;94.88
